Time;durP1;ratioP1;P1;durP2;ratioP2;P2;SDS_P1;SDS_P2;PMS_P1;PMS_P2;Temp;Humidity;BMP_temperature;BMP_pressure;BME280_temperature;BME280_humidity;BME280_pressure;Samples;Min_cycle;Max_cycle;Signal;HPM_P1;HPM_P2
2023/10/16 00:01:27;;;;;;;5.80;1.13;;;8.40;99.90;;;;;;5017814;28;20481;-80
2023/10/16 00:03:55;;;;;;;5.60;0.95;;;8.30;99.90;;;;;;4997885;28;20056;-81
2023/10/16 00:06:22;;;;;;;3.40;0.70;;;8.30;99.90;;;;;;5018604;28;20088;-80
2023/10/16 00:08:47;;;;;;;6.25;0.93;;;8.20;99.90;;;;;;5019859;28;20049;-81
2023/10/16 00:11:16;;;;;;;6.15;1.00;;;8.20;99.90;;;;;;5004333;28;20041;-81
2023/10/16 00:13:52;;;;;;;3.85;0.80;;;8.20;99.90;;;;;;5001109;28;20049;-81
2023/10/16 00:16:18;;;;;;;5.55;1.05;;;8.20;99.90;;;;;;4987656;28;20061;-81
2023/10/16 00:18:48;;;;;;;3.85;0.88;;;8.20;99.90;;;;;;4997984;28;20194;-82
2023/10/16 00:21:14;;;;;;;5.07;1.20;;;8.20;99.90;;;;;;5002594;28;20049;-76
2023/10/16 00:23:41;;;;;;;6.65;1.52;;;8.30;99.90;;;;;;5001593;28;20037;-76
2023/10/16 00:26:21;;;;;;;8.43;1.25;;;8.30;99.90;;;;;;5017170;28;20570;-78
2023/10/16 00:28:51;;;;;;;5.13;1.08;;;8.40;99.90;;;;;;5023362;28;20140;-79
2023/10/16 00:31:23;;;;;;;4.97;1.02;;;8.40;99.90;;;;;;4985257;28;20058;-79
2023/10/16 00:33:50;;;;;;;5.68;1.27;;;8.40;99.90;;;;;;5018735;28;20053;-79
2023/10/16 00:36:17;;;;;;;5.47;1.05;;;8.50;99.90;;;;;;4997807;28;20053;-79
2023/10/16 00:38:48;;;;;;;12.27;1.30;;;8.50;99.90;;;;;;5002060;28;20536;-80
2023/10/16 00:43:40;;;;;;;7.45;1.20;;;8.50;99.90;;;;;;5017824;28;20539;-78
2023/10/16 00:46:09;;;;;;;7.03;1.17;;;8.50;99.90;;;;;;5018595;28;20046;-77
2023/10/16 00:48:39;;;;;;;5.00;1.67;;;8.50;99.90;;;;;;5017845;28;20501;-78
2023/10/16 00:51:08;;;;;;;6.53;1.50;;;8.50;99.90;;;;;;5000182;28;20485;-78
2023/10/16 00:53:36;;;;;;;6.32;1.15;;;8.50;99.90;;;;;;5002923;28;20045;-79
2023/10/16 00:56:08;;;;;;;7.65;1.50;;;8.50;99.90;;;;;;5016365;28;20045;-78
2023/10/16 00:58:34;;;;;;;8.30;1.33;;;8.40;99.90;;;;;;5019559;28;20079;-79
2023/10/16 01:01:04;;;;;;;5.65;1.02;;;8.40;99.90;;;;;;4997893;28;20041;-79
2023/10/16 01:03:33;;;;;;;7.30;1.30;;;8.30;99.90;;;;;;5013699;28;20552;-80
2023/10/16 01:05:59;;;;;;;5.25;1.33;;;8.30;99.90;;;;;;5019371;28;20041;-80
2023/10/16 01:08:28;;;;;;;10.05;1.42;;;8.30;99.90;;;;;;5018517;28;20056;-80
2023/10/16 01:10:57;;;;;;;5.75;1.20;;;8.30;99.90;;;;;;5018162;28;20139;-80
2023/10/16 01:13:26;;;;;;;5.70;1.15;;;8.30;99.90;;;;;;5018771;28;20068;-80
2023/10/16 01:15:52;;;;;;;3.92;1.00;;;8.30;99.90;;;;;;4982774;28;20449;-79
2023/10/16 01:18:18;;;;;;;5.75;1.40;;;8.20;99.90;;;;;;5015693;28;20080;-80
2023/10/16 01:20:51;;;;;;;6.05;1.27;;;8.20;99.90;;;;;;5019745;28;20054;-80
2023/10/16 01:23:21;;;;;;;5.07;1.30;;;8.20;99.90;;;;;;4983676;28;20091;-79
2023/10/16 01:25:49;;;;;;;3.40;1.10;;;8.10;99.90;;;;;;4982235;28;20060;-79
2023/10/16 01:28:19;;;;;;;8.25;1.45;;;8.20;99.90;;;;;;5019881;28;20069;-79
2023/10/16 01:30:47;;;;;;;7.05;1.30;;;8.20;99.90;;;;;;5000027;28;20050;-79
2023/10/16 01:33:23;;;;;;;4.85;1.20;;;8.20;99.90;;;;;;4998878;28;20057;-80
2023/10/16 01:35:52;;;;;;;6.53;1.50;;;8.20;99.90;;;;;;5022781;28;20041;-80
2023/10/16 01:38:19;;;;;;;5.78;1.13;;;8.20;99.90;;;;;;5019675;28;20037;-80
2023/10/16 01:43:28;;;;;;;6.43;1.45;;;8.20;99.90;;;;;;4999865;28;20692;-80
2023/10/16 01:45:58;;;;;;;4.90;1.30;;;8.20;99.90;;;;;;5000267;28;20405;-80
2023/10/16 01:48:28;;;;;;;5.90;1.20;;;8.10;99.90;;;;;;4986278;28;20042;-80
2023/10/16 01:50:54;;;;;;;6.57;1.58;;;8.10;99.90;;;;;;5000546;28;20416;-80
2023/10/16 01:53:20;;;;;;;4.78;1.23;;;8.10;99.90;;;;;;4999380;28;20038;-80
2023/10/16 01:55:56;;;;;;;4.30;1.08;;;8.00;99.90;;;;;;5000244;28;20096;-80
2023/10/16 01:58:30;;;;;;;5.82;1.30;;;8.10;99.90;;;;;;4996849;28;20048;-80
2023/10/16 02:00:56;;;;;;;5.70;1.00;;;8.10;99.90;;;;;;4995157;28;20474;-80
2023/10/16 02:03:25;;;;;;;5.38;1.15;;;8.00;99.90;;;;;;5000248;28;20053;-80
2023/10/16 02:05:51;;;;;;;4.32;1.00;;;8.00;99.90;;;;;;4999831;28;20401;-80
2023/10/16 02:08:20;;;;;;;8.65;1.08;;;8.10;99.90;;;;;;4998963;28;20049;-80
2023/10/16 02:10:46;;;;;;;6.78;1.20;;;8.10;99.90;;;;;;4998266;28;20042;-81
2023/10/16 02:13:13;;;;;;;5.35;1.40;;;8.10;99.90;;;;;;4995661;28;20050;-75
2023/10/16 02:15:39;;;;;;;7.80;1.33;;;8.10;99.90;;;;;;4991605;28;20068;-77
2023/10/16 02:18:06;;;;;;;4.78;1.13;;;8.10;99.90;;;;;;4994301;28;20039;-76
2023/10/16 02:20:36;;;;;;;7.05;1.10;;;8.10;99.90;;;;;;4995694;28;20422;-78
2023/10/16 02:23:05;;;;;;;4.80;1.20;;;8.20;99.90;;;;;;4997081;28;20060;-78
2023/10/16 02:25:33;;;;;;;5.30;1.08;;;8.10;99.90;;;;;;4997843;28;20100;-78
2023/10/16 02:27:58;;;;;;;5.85;1.08;;;8.20;99.90;;;;;;4997207;28;21117;-79
2023/10/16 02:32:53;;;;;;;4.50;1.40;;;8.10;99.90;;;;;;5000363;28;20453;-76
2023/10/16 02:35:22;;;;;;;5.40;1.00;;;8.20;99.90;;;;;;4996157;28;20559;-77
2023/10/16 02:37:53;;;;;;;6.97;1.23;;;8.20;99.90;;;;;;4997551;28;20038;-77
2023/10/16 02:40:20;;;;;;;3.88;1.20;;;8.20;99.90;;;;;;4977853;28;20042;-77
2023/10/16 02:42:53;;;;;;;6.75;1.67;;;8.20;99.90;;;;;;4994931;28;20168;-78
2023/10/16 02:45:25;;;;;;;8.63;1.52;;;8.20;99.90;;;;;;4995414;28;20046;-77
2023/10/16 02:47:51;;;;;;;8.15;2.28;;;8.20;99.90;;;;;;4996975;28;20133;-77
2023/10/16 02:50:18;;;;;;;5.15;1.27;;;8.20;99.90;;;;;;4993369;28;20038;-78
2023/10/16 02:52:45;;;;;;;9.80;1.27;;;8.30;99.90;;;;;;4997338;28;20045;-79
2023/10/16 02:55:11;;;;;;;4.60;1.08;;;8.30;99.90;;;;;;4998794;28;20092;-78
2023/10/16 02:57:40;;;;;;;4.75;1.30;;;8.40;99.90;;;;;;4986009;28;20366;-79
2023/10/16 03:00:34;;;;;;;7.00;1.23;;;8.30;99.90;;;;;;4995144;28;20042;-78
2023/10/16 03:02:54;;;;;;;4.97;1.05;;;8.40;99.90;;;;;;4997741;28;20038;-79
2023/10/16 03:05:25;;;;;;;9.88;1.27;;;8.40;99.90;;;;;;4991169;28;20452;-79
2023/10/16 03:07:52;;;;;;;7.13;1.42;;;8.30;99.90;;;;;;4998304;28;20045;-79
2023/10/16 03:10:20;;;;;;;8.05;0.90;;;8.40;99.90;;;;;;4993706;28;20045;-79
2023/10/16 03:12:51;;;;;;;4.07;1.00;;;8.40;99.90;;;;;;4997577;28;20041;-80
2023/10/16 03:15:30;;;;;;;5.20;0.90;;;8.40;99.90;;;;;;4995157;28;20042;-79
2023/10/16 03:17:55;;;;;;;4.97;1.08;;;8.30;99.90;;;;;;4995559;28;20050;-80
2023/10/16 03:20:23;;;;;;;8.43;1.50;;;8.30;99.90;;;;;;4997936;28;20061;-80
2023/10/16 03:22:50;;;;;;;6.47;0.82;;;8.40;99.90;;;;;;5000065;28;20092;-80
2023/10/16 03:28:05;;;;;;;5.82;1.00;;;8.40;99.90;;;;;;4999304;28;20069;-79
2023/10/16 03:30:31;;;;;;;5.72;1.05;;;8.40;99.90;;;;;;4998658;28;20057;-79
2023/10/16 03:32:58;;;;;;;6.47;1.30;;;8.40;99.90;;;;;;4995122;28;20473;-79
2023/10/16 03:35:29;;;;;;;6.03;1.20;;;8.40;99.90;;;;;;4989626;28;20136;-77
2023/10/16 03:37:56;;;;;;;4.30;1.00;;;8.40;99.90;;;;;;4999545;28;20081;-77
2023/10/16 03:40:24;;;;;;;6.80;1.17;;;8.40;99.90;;;;;;4996021;28;20050;-77
2023/10/16 03:42:54;;;;;;;7.13;1.02;;;8.50;99.90;;;;;;4999971;28;20046;-78
2023/10/16 03:45:21;;;;;;;4.90;1.00;;;8.50;99.90;;;;;;4998498;28;20397;-78
2023/10/16 03:47:51;;;;;;;7.78;1.00;;;8.50;99.90;;;;;;5006315;28;20424;-79
2023/10/16 03:50:23;;;;;;;5.00;0.90;;;8.50;99.90;;;;;;5019160;28;20042;-79
2023/10/16 03:52:50;;;;;;;6.57;1.10;;;8.50;99.90;;;;;;5005959;28;20065;-80
2023/10/16 03:55:25;;;;;;;8.52;1.20;;;8.50;99.90;;;;;;4998838;28;20060;-79
2023/10/16 03:57:52;;;;;;;6.40;1.23;;;8.60;99.90;;;;;;5022717;28;20049;-80
2023/10/16 04:00:19;;;;;;;4.10;0.95;;;8.50;99.90;;;;;;5017684;28;20233;-80
2023/10/16 04:02:44;;;;;;;10.55;1.17;;;8.50;99.90;;;;;;5021814;28;20455;-80
2023/10/16 04:07:54;;;;;;;10.52;1.15;;;8.50;99.90;;;;;;5003327;28;20038;-80
2023/10/16 04:10:29;;;;;;;6.30;1.63;;;8.50;99.90;;;;;;4982172;28;21045;-80
2023/10/16 04:12:58;;;;;;;4.90;1.10;;;8.60;99.90;;;;;;5020979;28;20045;-81
2023/10/16 04:31:44;;;;;;;5.63;1.23;;;8.30;99.90;;;;;;5024417;28;20049;-82
2023/10/16 04:53:07;;;;;;;2.97;1.33;;;8.10;99.90;;;;;;5016200;28;20438;-81
2023/10/16 05:09:53;;;;;;;9.68;1.95;;;8.20;99.90;;;;;;4999213;28;20067;-82
2023/10/16 05:17:21;;;;;;;3.75;0.88;;;8.40;99.90;;;;;;4983025;28;20085;-84
2023/10/16 05:19:53;;;;;;;7.85;0.98;;;8.40;99.90;;;;;;4986347;28;20078;-81
2023/10/16 06:14:47;;;;;;;5.13;1.27;;;8.50;99.90;;;;;;4999225;28;20042;-85
2023/10/16 06:17:15;;;;;;;10.52;1.70;;;8.60;99.90;;;;;;4998365;28;20049;-80
2023/10/16 06:19:42;;;;;;;6.50;1.60;;;8.50;99.90;;;;;;5016356;28;20057;-80
2023/10/16 06:22:08;;;;;;;8.95;1.75;;;8.60;99.90;;;;;;5018173;28;20037;-79
2023/10/16 06:24:47;;;;;;;12.95;2.10;;;8.60;99.90;;;;;;5000288;28;20075;-79
2023/10/16 06:27:22;;;;;;;6.90;1.65;;;8.60;99.90;;;;;;4995617;28;20128;-77
2023/10/16 06:29:51;;;;;;;8.23;1.33;;;8.60;99.90;;;;;;4998518;28;20050;-82
2023/10/16 06:32:22;;;;;;;10.05;1.70;;;8.70;99.90;;;;;;4999877;28;20136;-78
2023/10/16 06:34:57;;;;;;;10.43;1.70;;;8.70;99.90;;;;;;5018008;28;20045;-91
2023/10/16 06:37:23;;;;;;;8.80;1.50;;;8.90;99.90;;;;;;5025382;28;20037;-92
2023/10/16 06:40:01;;;;;;;9.30;2.38;;;8.90;99.90;;;;;;5012758;28;20049;-89
2023/10/16 06:42:27;;;;;;;10.38;1.60;;;9.00;99.90;;;;;;4981731;28;20045;-89
2023/10/16 06:44:54;;;;;;;13.70;2.17;;;9.00;99.90;;;;;;5007181;28;20045;-91
2023/10/16 06:47:23;;;;;;;13.43;2.38;;;9.10;99.90;;;;;;5005725;28;20049;-89
2023/10/16 06:49:54;;;;;;;11.35;1.70;;;9.10;99.90;;;;;;4999706;28;20531;-91
2023/10/16 06:52:20;;;;;;;10.27;1.67;;;9.20;99.90;;;;;;5005206;28;21871;-89
2023/10/16 06:54:46;;;;;;;10.75;1.80;;;9.10;99.90;;;;;;4987962;28;20042;-92
2023/10/16 06:57:12;;;;;;;21.95;2.53;;;9.30;99.90;;;;;;4987240;28;20103;-91
2023/10/16 06:59:41;;;;;;;8.20;1.80;;;9.20;99.90;;;;;;5009923;28;20049;-85
2023/10/16 07:02:15;;;;;;;6.60;1.40;;;9.30;99.90;;;;;;5009363;28;20344;-92
2023/10/16 07:04:47;;;;;;;10.30;1.90;;;9.30;99.90;;;;;;5001794;28;20091;-87
2023/10/16 07:07:15;;;;;;;7.22;1.65;;;9.40;99.90;;;;;;4988285;28;20053;-91
2023/10/16 07:09:48;;;;;;;8.73;1.35;;;9.30;99.90;;;;;;5018252;28;20485;-80
2023/10/16 07:12:16;;;;;;;;;;;9.40;99.90;;;;;;5004903;28;20041;-87
2023/10/16 07:14:44;;;;;;;7.78;1.60;;;9.30;99.90;;;;;;5004236;28;20289;-92
2023/10/16 07:17:13;;;;;;;11.10;2.28;;;9.30;99.90;;;;;;4997710;28;20064;-89
2023/10/16 07:19:41;;;;;;;14.23;2.28;;;9.30;99.90;;;;;;4998796;28;20056;-78
2023/10/16 07:22:10;;;;;;;10.27;1.58;;;9.40;99.90;;;;;;5001424;28;20046;-79
2023/10/16 07:24:36;;;;;;;8.35;1.63;;;9.40;99.90;;;;;;5012074;28;20060;-79
2023/10/16 07:27:12;;;;;;;8.98;1.60;;;9.40;99.90;;;;;;5000344;28;20077;-78
2023/10/16 07:29:41;;;;;;;7.97;1.50;;;9.40;99.90;;;;;;5019876;28;20523;-75
2023/10/16 07:32:08;;;;;;;6.75;1.38;;;9.50;99.90;;;;;;5019280;28;20068;-79
2023/10/16 07:34:36;;;;;;;9.43;1.77;;;9.60;99.90;;;;;;5017243;28;20046;-76
2023/10/16 07:37:04;;;;;;;11.75;2.00;;;9.60;99.90;;;;;;5012645;28;20405;-75
2023/10/16 07:39:30;;;;;;;8.40;1.67;;;9.70;99.90;;;;;;5000553;28;20041;-76
2023/10/16 07:41:56;;;;;;;6.30;1.73;;;9.70;99.90;;;;;;5018467;28;20416;-76
2023/10/16 07:44:21;;;;;;;8.18;1.45;;;9.80;99.90;;;;;;4997478;28;20046;-75
2023/10/16 07:46:50;;;;;;;13.50;1.90;;;9.80;99.90;;;;;;4999559;28;20041;-76
2023/10/16 07:49:16;;;;;;;6.65;1.63;;;9.90;99.90;;;;;;5015512;28;20042;-76
2023/10/16 07:51:48;;;;;;;6.25;1.65;;;10.00;99.90;;;;;;5002917;28;20416;-76
2023/10/16 07:54:13;;;;;;;10.60;1.83;;;10.00;99.90;;;;;;4995299;28;20034;-76
2023/10/16 07:56:40;;;;;;;6.95;1.60;;;10.10;99.90;;;;;;5000152;28;20167;-76
2023/10/16 07:59:18;;;;;;;14.35;2.53;;;10.10;99.90;;;;;;5017071;28;20076;-76
2023/10/16 08:02:00;;;;;;;11.90;1.65;;;10.20;99.90;;;;;;5002596;28;20500;-77
2023/10/16 08:06:53;;;;;;;10.18;1.98;;;10.30;99.90;;;;;;5021501;28;20145;-76
2023/10/16 08:11:58;;;;;;;8.68;1.90;;;10.40;99.90;;;;;;5001556;28;20060;-79
2023/10/16 08:14:31;;;;;;;10.93;1.90;;;10.40;99.90;;;;;;5021640;28;20107;-80
2023/10/16 08:17:16;;;;;;;7.03;1.85;;;10.40;99.90;;;;;;5002705;28;20049;-79
2023/10/16 08:19:42;;;;;;;9.45;1.92;;;10.40;99.90;;;;;;4995198;28;20041;-80
2023/10/16 08:22:09;;;;;;;6.57;1.65;;;10.50;99.90;;;;;;4997745;28;20145;-79
2023/10/16 08:24:43;;;;;;;13.13;1.80;;;10.50;99.90;;;;;;5002267;28;20119;-81
2023/10/16 08:27:19;;;;;;;6.10;1.65;;;10.50;99.90;;;;;;4997987;28;20579;-80
2023/10/16 08:29:59;;;;;;;6.78;1.60;;;10.50;99.90;;;;;;5016399;28;20125;-81
2023/10/16 08:35:09;;;;;;;5.43;1.65;;;10.70;99.90;;;;;;5015084;28;20049;-79
2023/10/16 08:37:35;;;;;;;6.20;1.92;;;10.60;99.90;;;;;;4984917;28;20129;-81
2023/10/16 08:40:01;;;;;;;4.82;1.77;;;10.70;99.90;;;;;;5000708;28;20080;-78
2023/10/16 08:42:27;;;;;;;11.02;2.05;;;10.80;99.90;;;;;;5003976;28;20213;-80
2023/10/16 08:45:14;;;;;;;11.45;2.10;;;10.80;99.90;;;;;;4998206;28;20205;-81
2023/10/16 08:47:46;;;;;;;6.75;1.52;;;10.90;99.90;;;;;;5018675;28;20051;-82
2023/10/16 08:50:17;;;;;;;5.27;1.30;;;10.90;99.90;;;;;;5020422;28;20065;-81
2023/10/16 08:52:50;;;;;;;9.35;1.60;;;11.00;99.90;;;;;;5020326;28;20042;-81
2023/10/16 08:55:16;;;;;;;8.10;1.70;;;11.00;99.90;;;;;;4990231;28;20069;-78
2023/10/16 08:57:46;;;;;;;9.00;1.40;;;11.00;99.90;;;;;;4999256;28;20458;-80
2023/10/16 09:00:23;;;;;;;7.07;1.85;;;11.00;99.90;;;;;;4997045;28;20049;-80
2023/10/16 09:02:53;;;;;;;6.47;1.35;;;11.00;99.90;;;;;;4999528;28;20053;-85
2023/10/16 09:05:20;;;;;;;8.55;1.73;;;11.00;99.90;;;;;;4982929;28;20046;-81
2023/10/16 09:07:48;;;;;;;8.05;1.65;;;11.00;99.90;;;;;;5001370;28;20825;-82
2023/10/16 09:10:15;;;;;;;5.38;1.20;;;11.00;99.90;;;;;;4993159;28;20061;-80
2023/10/16 09:12:55;;;;;;;7.80;1.60;;;11.00;99.90;;;;;;5003159;28;20570;-81
2023/10/16 09:15:27;;;;;;;6.40;1.83;;;11.00;99.90;;;;;;5018647;28;20421;-80
2023/10/16 09:17:54;;;;;;;12.75;2.80;;;11.10;99.90;;;;;;5000989;28;20091;-80
2023/10/16 09:20:32;;;;;;;12.48;1.83;;;11.20;99.90;;;;;;5002265;28;20421;-81
2023/10/16 09:23:02;;;;;;;8.63;1.98;;;11.20;99.90;;;;;;4994487;28;20465;-81
2023/10/16 09:25:31;;;;;;;6.75;1.75;;;11.30;99.90;;;;;;5002727;28;20063;-85
2023/10/16 09:27:56;;;;;;;4.75;1.10;;;11.40;99.90;;;;;;4999867;28;20124;-85
2023/10/16 09:30:23;;;;;;;4.88;1.17;;;11.40;99.90;;;;;;4999812;28;20132;-85
2023/10/16 09:32:51;;;;;;;6.05;1.20;;;11.40;99.90;;;;;;4997784;28;20038;-85
2023/10/16 09:35:26;;;;;;;7.80;1.83;;;11.40;99.90;;;;;;4999573;28;20081;-87
2023/10/16 09:37:52;;;;;;;10.60;1.98;;;11.40;99.90;;;;;;5002071;28;20041;-87
2023/10/16 09:43:06;;;;;;;9.23;1.67;;;11.50;99.90;;;;;;4999177;28;20077;-87
2023/10/16 09:45:36;;;;;;;7.00;1.30;;;11.50;99.90;;;;;;4997313;28;20382;-84
2023/10/16 09:48:08;;;;;;;9.25;1.33;;;11.50;99.90;;;;;;4985866;28;20542;-83
2023/10/16 09:50:36;;;;;;;4.28;1.20;;;11.60;99.90;;;;;;4987709;28;20037;-85
2023/10/16 09:53:02;;;;;;;6.13;2.03;;;11.80;99.90;;;;;;5000771;28;20037;-83
2023/10/16 09:55:33;;;;;;;9.93;1.80;;;11.80;99.90;;;;;;4997706;28;20046;-83
2023/10/16 09:58:02;;;;;;;8.75;1.50;;;11.80;99.90;;;;;;5003620;28;20045;-83
2023/10/16 10:03:02;;;;;;;6.05;1.63;;;11.70;99.90;;;;;;5016542;28;20065;-85
2023/10/16 10:05:41;;;;;;;7.78;1.70;;;11.70;99.90;;;;;;4997177;28;20041;-86
2023/10/16 10:08:18;;;;;;;9.60;1.45;;;11.60;99.90;;;;;;5016771;28;20177;-85
2023/10/16 10:13:43;;;;;;;8.05;1.52;;;11.70;99.90;;;;;;4996041;28;20049;-87
2023/10/16 10:16:13;;;;;;;12.73;2.35;;;11.70;99.90;;;;;;5017610;28;20033;-86
2023/10/16 10:18:46;;;;;;;5.55;1.33;;;11.70;99.90;;;;;;4996747;28;20431;-86
2023/10/16 10:21:18;;;;;;;8.88;1.40;;;11.70;99.90;;;;;;4998021;28;20049;-87
2023/10/16 10:24:00;;;;;;;9.43;1.65;;;11.70;99.90;;;;;;4966990;28;20693;-86
2023/10/16 10:26:27;;;;;;;7.63;1.50;;;11.70;99.90;;;;;;4996636;28;20053;-87
2023/10/16 10:29:09;;;;;;;7.88;1.40;;;11.80;99.90;;;;;;4998618;28;20068;-85
2023/10/16 10:31:36;;;;;;;12.93;2.97;;;11.80;99.90;;;;;;5000168;28;20042;-85
2023/10/16 10:34:18;;;;;;;5.30;1.67;;;11.90;99.90;;;;;;4999782;28;20500;-85
2023/10/16 10:36:44;;;;;;;12.40;2.25;;;12.10;99.90;;;;;;4999204;28;20550;-85
2023/10/16 10:39:22;;;;;;;9.85;1.70;;;12.20;99.90;;;;;;4978786;28;20053;-85
2023/10/16 10:41:58;;;;;;;8.68;1.75;;;12.30;99.90;;;;;;5000403;28;20064;-87
2023/10/16 10:44:35;;;;;;;6.20;1.48;;;12.40;99.90;;;;;;4997658;28;20096;-85
2023/10/16 10:47:14;;;;;;;6.88;1.40;;;12.40;99.90;;;;;;4999029;28;20499;-75
2023/10/16 10:49:42;;;;;;;8.35;2.10;;;12.50;99.90;;;;;;5000106;28;20071;-85
2023/10/16 10:52:07;;;;;;;5.45;1.38;;;12.50;99.90;;;;;;5023193;28;20042;-85
2023/10/16 10:54:34;;;;;;;10.82;1.40;;;12.50;99.90;;;;;;5006533;28;20516;-85
2023/10/16 10:57:07;;;;;;;7.03;2.00;;;12.60;99.90;;;;;;5004845;28;20427;-86
2023/10/16 10:59:39;;;;;;;;;;;12.60;99.90;;;;;;5001475;28;20056;-82
2023/10/16 11:02:51;;;;;;;5.68;1.83;;;12.60;99.90;;;;;;5004141;28;19935;-83
2023/10/16 11:05:14;;;;;;;9.98;2.20;;;12.70;99.90;;;;;;5003253;28;20048;-86
2023/10/16 11:07:45;;;;;;;5.68;1.45;;;12.70;99.90;;;;;;5022328;28;20132;-88
2023/10/16 11:10:13;;;;;;;4.28;1.70;;;12.80;99.90;;;;;;4996778;28;20042;-86
2023/10/16 11:12:39;;;;;;;4.85;1.40;;;12.80;99.90;;;;;;5002268;28;20037;-87
2023/10/16 11:15:15;;;;;;;9.93;2.45;;;12.90;99.90;;;;;;5002371;28;20458;-88
2023/10/16 11:17:40;;;;;;;5.50;1.40;;;12.90;99.90;;;;;;5001056;28;20079;-87
2023/10/16 11:20:27;;;;;;;4.82;1.52;;;13.00;99.90;;;;;;5000438;28;20144;-87
2023/10/16 11:22:56;;;;;;;7.10;1.60;;;13.00;99.90;;;;;;4996388;28;20453;-89
2023/10/16 11:25:28;;;;;;;5.82;1.40;;;13.10;99.90;;;;;;5005332;28;20046;-88
2023/10/16 11:27:57;;;;;;;9.52;1.70;;;13.20;99.90;;;;;;4990619;28;20046;-91
2023/10/16 11:30:26;;;;;;;8.15;1.42;;;13.20;99.90;;;;;;5022139;28;20053;-76
2023/10/16 11:32:53;;;;;;;6.53;1.23;;;13.20;99.90;;;;;;5006426;28;20132;-89
2023/10/16 11:35:19;;;;;;;6.47;1.65;;;13.10;99.90;;;;;;5010760;28;20040;-86
2023/10/16 11:37:59;;;;;;;5.75;1.52;;;13.00;99.90;;;;;;5020875;28;20103;-90
2023/10/16 11:40:33;;;;;;;4.85;1.48;;;13.00;99.90;;;;;;4989726;28;20052;-90
2023/10/16 11:43:00;;;;;;;8.18;1.58;;;13.00;99.90;;;;;;5006186;28;20072;-92
2023/10/16 11:45:30;;;;;;;4.80;1.75;;;13.10;99.90;;;;;;5004424;28;20049;-91
2023/10/16 11:48:35;;;;;;;4.63;1.23;;;13.10;99.90;;;;;;5024551;28;20519;-89
2023/10/16 11:50:57;;;;;;;4.28;1.27;;;13.10;99.90;;;;;;5001166;28;20062;-87
2023/10/16 11:53:23;;;;;;;7.13;1.73;;;13.20;99.90;;;;;;5024218;28;20057;-87
2023/10/16 11:55:52;;;;;;;10.05;2.22;;;13.20;99.90;;;;;;5006061;28;20511;-90
2023/10/16 11:58:18;;;;;;;3.20;1.08;;;13.30;99.90;;;;;;5024192;28;20500;-92
2023/10/16 12:00:53;;;;;;;5.60;1.65;;;13.30;99.90;;;;;;5006673;28;20049;-88
2023/10/16 12:03:23;;;;;;;3.55;1.20;;;13.40;99.90;;;;;;5002482;28;20684;-86
2023/10/16 12:05:50;;;;;;;5.10;1.20;;;13.40;99.90;;;;;;5006079;28;20054;-87
2023/10/16 12:08:18;;;;;;;6.78;1.50;;;13.40;99.90;;;;;;5005052;28;20396;-87
2023/10/16 12:10:46;;;;;;;8.02;1.40;;;13.40;99.90;;;;;;5019861;28;20508;-90
2023/10/16 12:13:13;;;;;;;3.85;1.42;;;13.40;99.90;;;;;;5003105;28;20069;-89
2023/10/16 12:15:43;;;;;;;7.68;1.30;;;13.40;99.90;;;;;;5022579;28;20470;-87
2023/10/16 12:18:09;;;;;;;6.13;1.55;;;13.50;99.90;;;;;;4989638;28;20184;-86
2023/10/16 12:20:37;;;;;;;3.92;1.55;;;13.50;99.90;;;;;;5025536;28;20040;-89
2023/10/16 12:23:04;;;;;;;5.47;1.40;;;13.50;99.90;;;;;;5023825;28;20501;-91
2023/10/16 12:25:30;;;;;;;9.23;1.52;;;13.50;99.90;;;;;;5006725;28;20045;-86
2023/10/16 12:27:55;;;;;;;8.52;1.73;;;13.50;99.90;;;;;;5023962;28;20042;-85
2023/10/16 12:30:21;;;;;;;6.80;1.60;;;13.50;99.90;;;;;;5019468;28;20033;-89
2023/10/16 12:32:47;;;;;;;6.72;1.80;;;13.50;99.90;;;;;;5004117;28;20124;-82
2023/10/16 12:35:17;;;;;;;7.18;1.50;;;13.60;99.90;;;;;;4998698;28;20045;-86
2023/10/16 12:37:43;;;;;;;5.32;1.20;;;13.60;99.90;;;;;;4989876;28;20041;-86
2023/10/16 12:40:27;;;;;;;9.10;1.38;;;13.60;99.90;;;;;;4996382;28;20099;-87
2023/10/16 12:42:55;;;;;;;7.28;1.63;;;13.60;99.90;;;;;;4984898;28;20467;-85
2023/10/16 12:45:22;;;;;;;4.15;1.63;;;13.60;99.90;;;;;;5016257;28;20622;-85
2023/10/16 12:47:52;;;;;;;5.40;1.60;;;13.60;99.90;;;;;;4988689;28;20068;-87
2023/10/16 12:50:23;;;;;;;6.32;1.35;;;13.60;99.90;;;;;;4998973;28;20100;-87
2023/10/16 12:52:57;;;;;;;6.78;1.63;;;13.60;99.90;;;;;;5015726;28;20038;-84
2023/10/16 12:55:24;;;;;;;6.78;1.70;;;13.60;99.90;;;;;;4985558;28;20041;-86
2023/10/16 12:57:53;;;;;;;7.13;1.25;;;13.60;99.90;;;;;;5021027;28;20068;-84
2023/10/16 13:00:20;;;;;;;9.95;1.70;;;13.60;99.90;;;;;;4985668;28;20041;-84
2023/10/16 13:02:48;;;;;;;10.02;2.10;;;13.60;99.90;;;;;;5004600;28;20049;-83
2023/10/16 13:05:15;;;;;;;3.60;0.90;;;13.60;99.90;;;;;;5000526;28;20049;-83
2023/10/16 13:07:45;;;;;;;5.43;1.33;;;13.70;99.90;;;;;;4999641;28;20069;-79
2023/10/16 13:10:16;;;;;;;5.63;1.10;;;13.70;99.90;;;;;;4997637;28;20049;-90
2023/10/16 13:12:45;;;;;;;5.93;1.13;;;13.70;99.90;;;;;;5001788;28;20042;-89
2023/10/16 13:15:16;;;;;;;8.30;1.88;;;13.70;99.90;;;;;;5001169;28;20041;-82
2023/10/16 13:17:44;;;;;;;4.35;1.30;;;13.70;99.90;;;;;;4987447;28;20537;-81
2023/10/16 13:20:17;;;;;;;7.43;1.23;;;13.70;99.90;;;;;;4998809;28;20042;-84
2023/10/16 13:22:43;;;;;;;;;;;13.70;99.90;;;;;;5002136;28;20147;-85
2023/10/16 13:25:12;;;;;;;10.15;1.45;;;13.60;99.90;;;;;;4995707;28;19929;-81
2023/10/16 13:27:41;;;;;;;5.97;1.40;;;13.60;99.90;;;;;;4992466;28;20037;-82
2023/10/16 13:30:11;;;;;;;7.70;1.40;;;13.60;99.90;;;;;;5000117;28;20086;-85
2023/10/16 13:32:40;;;;;;;9.90;1.40;;;13.60;99.90;;;;;;5016268;28;20059;-82
2023/10/16 13:35:12;;;;;;;8.85;1.60;;;13.50;99.90;;;;;;4983111;28;20052;-81
2023/10/16 13:37:42;;;;;;;7.15;1.58;;;13.50;99.90;;;;;;4999831;28;20103;-81
2023/10/16 13:40:20;;;;;;;12.38;1.98;;;13.50;99.90;;;;;;5016540;28;20046;-82
2023/10/16 13:42:47;;;;;;;7.10;1.40;;;13.40;99.90;;;;;;4972481;28;20064;-80
2023/10/16 13:45:13;;;;;;;8.30;2.15;;;13.40;99.90;;;;;;5000773;28;20140;-81
2023/10/16 13:47:43;;;;;;;6.63;1.40;;;13.40;99.90;;;;;;4988183;28;20354;-81
2023/10/16 13:50:28;;;;;;;7.40;1.58;;;13.40;99.90;;;;;;5000840;28;20037;-81
2023/10/16 13:52:54;;;;;;;4.05;1.15;;;13.40;99.90;;;;;;4985245;28;20073;-80
2023/10/16 13:55:24;;;;;;;4.07;1.40;;;13.30;99.90;;;;;;4983834;28;20049;-81
2023/10/16 13:57:51;;;;;;;8.48;1.38;;;13.30;99.90;;;;;;4982045;28;20044;-80
2023/10/16 14:00:31;;;;;;;6.30;1.40;;;13.30;99.90;;;;;;5018500;28;20048;-80
2023/10/16 14:03:07;;;;;;;6.95;1.52;;;13.30;99.90;;;;;;5003262;28;20071;-81
2023/10/16 14:05:35;;;;;;;8.88;1.77;;;13.30;99.90;;;;;;5011733;28;20047;-80
2023/10/16 14:08:03;;;;;;;5.80;1.40;;;13.30;99.90;;;;;;4999255;28;20489;-82
2023/10/16 14:10:29;;;;;;;5.65;1.30;;;13.30;99.90;;;;;;4997960;28;20038;-87
2023/10/16 14:13:10;;;;;;;5.93;1.58;;;13.20;99.90;;;;;;5003580;28;20405;-86
2023/10/16 14:15:38;;;;;;;8.95;1.85;;;13.20;99.90;;;;;;4999598;28;20168;-88
2023/10/16 14:18:07;;;;;;;5.90;1.52;;;13.20;99.90;;;;;;4988390;28;20156;-87
2023/10/16 14:20:37;;;;;;;5.43;1.58;;;13.20;99.90;;;;;;4981769;28;20128;-88
2023/10/16 14:23:09;;;;;;;3.95;1.20;;;13.20;99.90;;;;;;5013244;28;20037;-87
2023/10/16 14:25:38;;;;;;;11.23;1.48;;;13.20;99.90;;;;;;5010514;28;20520;-89
2023/10/16 14:28:27;;;;;;;5.65;1.20;;;13.20;99.90;;;;;;5018654;28;20055;-79
2023/10/16 14:30:54;;;;;;;8.52;2.00;;;13.20;99.90;;;;;;5001820;28;20380;-90
2023/10/16 14:33:21;;;;;;;4.95;1.42;;;13.10;99.90;;;;;;5020465;28;20072;-91
2023/10/16 14:35:49;;;;;;;5.50;1.35;;;13.10;99.90;;;;;;5003550;28;20049;-87
2023/10/16 14:38:19;;;;;;;5.50;1.58;;;13.10;99.90;;;;;;4984668;28;20069;-88
2023/10/16 14:40:47;;;;;;;5.18;1.50;;;13.10;99.90;;;;;;4980785;28;20052;-86
2023/10/16 14:43:17;;;;;;;6.18;1.50;;;13.00;99.90;;;;;;4987888;28;20049;-86
2023/10/16 14:45:47;;;;;;;11.30;1.52;;;13.00;99.90;;;;;;4999993;28;20064;-82
2023/10/16 14:48:16;;;;;;;7.20;1.35;;;13.00;99.90;;;;;;4982842;28;20073;-82
2023/10/16 14:50:45;;;;;;;10.85;2.10;;;12.90;99.90;;;;;;5021902;28;20455;-85
2023/10/16 14:53:11;;;;;;;7.72;1.33;;;12.90;99.90;;;;;;5018721;28;20525;-89
2023/10/16 14:55:37;;;;;;;6.15;1.70;;;12.80;99.90;;;;;;5001072;28;20042;-89
2023/10/16 14:58:03;;;;;;;6.72;1.30;;;12.80;99.90;;;;;;4998258;28;20512;-89
2023/10/16 15:00:32;;;;;;;7.80;1.42;;;12.80;99.90;;;;;;5002842;28;20033;-90
2023/10/16 15:03:00;;;;;;;4.68;1.40;;;12.70;99.90;;;;;;4989380;28;20034;-89
2023/10/16 15:05:26;;;;;;;6.65;1.58;;;12.70;99.90;;;;;;4998850;28;20045;-89
2023/10/16 15:07:51;;;;;;;5.30;1.45;;;12.70;99.90;;;;;;4997770;28;20124;-88
2023/10/16 15:10:18;;;;;;;9.30;1.50;;;12.60;99.90;;;;;;4991483;28;20153;-89
2023/10/16 15:12:44;;;;;;;6.40;1.50;;;12.70;99.90;;;;;;4989371;28;20113;-87
2023/10/16 15:15:11;;;;;;;4.07;1.20;;;12.60;99.90;;;;;;4987438;28;20607;-89
2023/10/16 15:17:38;;;;;;;4.13;1.17;;;12.60;99.90;;;;;;5001811;28;20072;-87
2023/10/16 15:20:07;;;;;;;10.13;1.98;;;12.60;99.90;;;;;;4979689;28;20052;-87